sensor_id;sensor_type;location;lat;lon;timestamp;pressure;altitude;pressure_sealevel;temperature;humidity
83200;BME280;73092;49.132;8.920;2023-11-18T00:01:16;100268.94;;;4.78;100.00
83200;BME280;73092;49.132;8.920;2023-11-18T00:03:41;100262.00;;;4.77;100.00
83200;BME280;73092;49.132;8.920;2023-11-18T00:06:07;100268.94;;;4.77;100.00
83200;BME280;73092;49.132;8.920;2023-11-18T00:08:33;100275.00;;;4.76;100.00
83200;BME280;73092;49.132;8.920;2023-11-18T00:10:58;100263.72;;;4.75;100.00
83200;BME280;73092;49.132;8.920;2023-11-18T00:13:24;100268.06;;;4.78;100.00
83200;BME280;73092;49.132;8.920;2023-11-18T00:15:51;100267.22;;;4.77;100.00
83200;BME280;73092;49.132;8.920;2023-11-18T00:18:16;100265.44;;;4.76;100.00
83200;BME280;73092;49.132;8.920;2023-11-18T00:20:42;100270.66;;;4.76;100.00
83200;BME280;73092;49.132;8.920;2023-11-18T00:23:08;100279.34;;;4.78;100.00
83200;BME280;73092;49.132;8.920;2023-11-18T00:25:33;100278.50;;;4.78;100.00
83200;BME280;73092;49.132;8.920;2023-11-18T00:28:01;100273.28;;;4.78;100.00
83200;BME280;73092;49.132;8.920;2023-11-18T00:30:27;100275.84;;;4.76;100.00
83200;BME280;73092;49.132;8.920;2023-11-18T00:32:53;100272.41;;;4.77;100.00
83200;BME280;73092;49.132;8.920;2023-11-18T00:35:19;100269.81;;;4.79;100.00
83200;BME280;73092;49.132;8.920;2023-11-18T00:37:44;100269.00;;;4.84;100.00
83200;BME280;73092;49.132;8.920;2023-11-18T00:40:09;100274.22;;;4.87;100.00
83200;BME280;73092;49.132;8.920;2023-11-18T00:42:36;100263.81;;;4.89;100.00
83200;BME280;73092;49.132;8.920;2023-11-18T00:45:02;100262.09;;;4.90;100.00
83200;BME280;73092;49.132;8.920;2023-11-18T00:47:29;100268.19;;;4.93;100.00
83200;BME280;73092;49.132;8.920;2023-11-18T00:49:54;100269.09;;;5.00;100.00
83200;BME280;73092;49.132;8.920;2023-11-18T00:52:20;100271.72;;;5.04;100.00
83200;BME280;73092;49.132;8.920;2023-11-18T00:54:45;100270.00;;;5.06;100.00
83200;BME280;73092;49.132;8.920;2023-11-18T00:57:11;100265.66;;;5.04;100.00
83200;BME280;73092;49.132;8.920;2023-11-18T00:59:36;100269.16;;;5.06;100.00
83200;BME280;73092;49.132;8.920;2023-11-18T01:02:02;100270.00;;;5.06;100.00
83200;BME280;73092;49.132;8.920;2023-11-18T01:04:28;100277.84;;;5.06;100.00
83200;BME280;73092;49.132;8.920;2023-11-18T01:06:54;100272.66;;;5.08;100.00
83200;BME280;73092;49.132;8.920;2023-11-18T01:09:19;100269.16;;;5.09;100.00
83200;BME280;73092;49.132;8.920;2023-11-18T01:11:44;100275.28;;;5.11;100.00
83200;BME280;73092;49.132;8.920;2023-11-18T01:14:10;100276.16;;;5.16;100.00
83200;BME280;73092;49.132;8.920;2023-11-18T01:16:36;100275.28;;;5.16;100.00
83200;BME280;73092;49.132;8.920;2023-11-18T01:19:03;100283.16;;;5.20;100.00
83200;BME280;73092;49.132;8.920;2023-11-18T01:21:29;100290.94;;;5.17;100.00
83200;BME280;73092;49.132;8.920;2023-11-18T01:23:54;100295.25;;;5.17;100.00
83200;BME280;73092;49.132;8.920;2023-11-18T01:26:20;100292.66;;;5.15;100.00
83200;BME280;73092;49.132;8.920;2023-11-18T01:28:47;100295.28;;;5.15;100.00
83200;BME280;73092;49.132;8.920;2023-11-18T01:31:12;100291.78;;;5.16;100.00
83200;BME280;73092;49.132;8.920;2023-11-18T01:33:40;100288.31;;;5.14;100.00
83200;BME280;73092;49.132;8.920;2023-11-18T01:36:07;100286.56;;;5.13;100.00
83200;BME280;73092;49.132;8.920;2023-11-18T01:38:36;100290.00;;;5.09;100.00
83200;BME280;73092;49.132;8.920;2023-11-18T01:41:05;100290.00;;;5.06;100.00
83200;BME280;73092;49.132;8.920;2023-11-18T01:43:32;100284.75;;;5.03;100.00
83200;BME280;73092;49.132;8.920;2023-11-18T01:46:02;100284.75;;;5.00;100.00
83200;BME280;73092;49.132;8.920;2023-11-18T01:48:29;100284.75;;;5.00;100.00
83200;BME280;73092;49.132;8.920;2023-11-18T01:50:57;100280.41;;;5.00;100.00
83200;BME280;73092;49.132;8.920;2023-11-18T01:53:23;100288.22;;;4.99;100.00
83200;BME280;73092;49.132;8.920;2023-11-18T01:55:49;100285.59;;;4.96;100.00
83200;BME280;73092;49.132;8.920;2023-11-18T01:58:15;100293.41;;;4.96;100.00
83200;BME280;73092;49.132;8.920;2023-11-18T02:00:45;100286.44;;;4.95;100.00
83200;BME280;73092;49.132;8.920;2023-11-18T02:03:13;100297.75;;;4.97;100.00
83200;BME280;73092;49.132;8.920;2023-11-18T02:05:38;100293.41;;;4.96;100.00
83200;BME280;73092;49.132;8.920;2023-11-18T02:08:04;100294.25;;;4.93;100.00
83200;BME280;73092;49.132;8.920;2023-11-18T02:10:36;100295.13;;;4.94;100.00
83200;BME280;73092;49.132;8.920;2023-11-18T02:13:26;100296.84;;;4.95;100.00
83200;BME280;73092;49.132;8.920;2023-11-18T02:15:55;100295.13;;;4.97;100.00
83200;BME280;73092;49.132;8.920;2023-11-18T02:18:25;100293.41;;;4.96;100.00
83200;BME280;73092;49.132;8.920;2023-11-18T02:20:53;100295.13;;;4.97;100.00
83200;BME280;73092;49.132;8.920;2023-11-18T02:23:19;100291.69;;;5.01;100.00
83200;BME280;73092;49.132;8.920;2023-11-18T02:25:47;100296.13;;;5.13;100.00
83200;BME280;73092;49.132;8.920;2023-11-18T02:28:13;100288.31;;;5.14;100.00
83200;BME280;73092;49.132;8.920;2023-11-18T02:30:40;100297.03;;;5.19;100.00
83200;BME280;73092;49.132;8.920;2023-11-18T02:33:28;100300.59;;;5.30;100.00
83200;BME280;73092;49.132;8.920;2023-11-18T02:36:09;100302.28;;;5.25;100.00
83200;BME280;73092;49.132;8.920;2023-11-18T02:38:42;100295.31;;;5.21;100.00
83200;BME280;73092;49.132;8.920;2023-11-18T02:41:11;100300.56;;;5.24;100.00
83200;BME280;73092;49.132;8.920;2023-11-18T02:43:39;100302.31;;;5.30;100.00
83200;BME280;73092;49.132;8.920;2023-11-18T02:46:06;100299.75;;;5.33;100.00
83200;BME280;73092;49.132;8.920;2023-11-18T02:48:32;100304.09;;;5.39;100.00
83200;BME280;73092;49.132;8.920;2023-11-18T02:50:58;100295.41;;;5.33;100.00
83200;BME280;73092;49.132;8.920;2023-11-18T02:53:24;100284.03;;;5.21;100.00
83200;BME280;73092;49.132;8.920;2023-11-18T02:55:49;100290.09;;;5.21;100.00
83200;BME280;73092;49.132;8.920;2023-11-18T02:58:17;100295.25;;;5.12;100.00
83200;BME280;73092;49.132;8.920;2023-11-18T03:00:48;100279.59;;;5.09;100.00
83200;BME280;73092;49.132;8.920;2023-11-18T03:03:13;100284.88;;;5.18;100.00
83200;BME280;73092;49.132;8.920;2023-11-18T03:05:39;100277.00;;;5.14;100.00
83200;BME280;73092;49.132;8.920;2023-11-18T03:08:05;100283.94;;;5.10;100.00
83200;BME280;73092;49.132;8.920;2023-11-18T03:10:34;100282.16;;;5.04;100.00
83200;BME280;73092;49.132;8.920;2023-11-18T03:13:00;100289.94;;;5.00;100.00
83200;BME280;73092;49.132;8.920;2023-11-18T03:15:26;100283.03;;;5.02;100.00
83200;BME280;73092;49.132;8.920;2023-11-18T03:17:52;100289.13;;;5.05;100.00
83200;BME280;73092;49.132;8.920;2023-11-18T03:20:19;100281.25;;;5.01;100.00
83200;BME280;73092;49.132;8.920;2023-11-18T03:22:45;100284.75;;;4.98;100.00
83200;BME280;73092;49.132;8.920;2023-11-18T03:25:11;100284.75;;;5.00;100.00
83200;BME280;73092;49.132;8.920;2023-11-18T03:27:37;100295.19;;;5.03;100.00
83200;BME280;73092;49.132;8.920;2023-11-18T03:30:03;100292.59;;;5.07;100.00
83200;BME280;73092;49.132;8.920;2023-11-18T03:32:29;100283.88;;;5.01;100.00
83200;BME280;73092;49.132;8.920;2023-11-18T03:34:54;100295.16;;;5.00;100.00
83200;BME280;73092;49.132;8.920;2023-11-18T03:37:20;100289.94;;;5.00;100.00
83200;BME280;73092;49.132;8.920;2023-11-18T03:39:48;100284.78;;;5.06;100.00
83200;BME280;73092;49.132;8.920;2023-11-18T03:42:13;100299.56;;;5.05;100.00
83200;BME280;73092;49.132;8.920;2023-11-18T03:44:41;100293.47;;;5.05;100.00
83200;BME280;73092;49.132;8.920;2023-11-18T03:47:06;100296.91;;;5.04;100.00
83200;BME280;73092;49.132;8.920;2023-11-18T03:49:32;100290.00;;;5.06;100.00
83200;BME280;73092;49.132;8.920;2023-11-18T03:51:57;100296.06;;;5.03;100.00
83200;BME280;73092;49.132;8.920;2023-11-18T03:54:22;100289.09;;;5.04;100.00
83200;BME280;73092;49.132;8.920;2023-11-18T03:56:48;100300.50;;;5.15;100.00
83200;BME280;73092;49.132;8.920;2023-11-18T03:59:13;100295.22;;;5.09;100.00
83200;BME280;73092;49.132;8.920;2023-11-18T04:01:39;100294.34;;;5.10;100.00
83200;BME280;73092;49.132;8.920;2023-11-18T04:04:06;100283.91;;;5.07;100.00
83200;BME280;73092;49.132;8.920;2023-11-18T04:06:31;100293.47;;;5.05;100.00
83200;BME280;73092;49.132;8.920;2023-11-18T04:08:56;100290.84;;;5.02;100.00
83200;BME280;73092;49.132;8.920;2023-11-18T04:11:22;100297.75;;;5.01;100.00
83200;BME280;73092;49.132;8.920;2023-11-18T04:13:47;100296.91;;;5.01;100.00
83200;BME280;73092;49.132;8.920;2023-11-18T04:16:16;100293.44;;;4.99;100.00
83200;BME280;73092;49.132;8.920;2023-11-18T04:18:44;100289.94;;;4.97;100.00
83200;BME280;73092;49.132;8.920;2023-11-18T04:21:10;100289.06;;;4.96;100.00
83200;BME280;73092;49.132;8.920;2023-11-18T04:23:41;100300.38;;;4.98;100.00
83200;BME280;73092;49.132;8.920;2023-11-18T04:26:08;100295.09;;;4.91;100.00
83200;BME280;73092;49.132;8.920;2023-11-18T04:28:34;100286.34;;;4.85;100.00
83200;BME280;73092;49.132;8.920;2023-11-18T04:30:59;100283.72;;;4.81;100.00
83200;BME280;73092;49.132;8.920;2023-11-18T04:33:26;100288.16;;;4.93;100.00
83200;BME280;73092;49.132;8.920;2023-11-18T04:35:51;100286.34;;;4.85;100.00
83200;BME280;73092;49.132;8.920;2023-11-18T04:38:17;100273.31;;;4.81;100.00
83200;BME280;73092;49.132;8.920;2023-11-18T04:40:44;100278.50;;;4.82;100.00
83200;BME280;73092;49.132;8.920;2023-11-18T04:43:11;100284.66;;;4.87;100.00
83200;BME280;73092;49.132;8.920;2023-11-18T04:45:37;100280.31;;;4.88;100.00
83200;BME280;73092;49.132;8.920;2023-11-18T04:48:03;100275.94;;;4.88;100.00
83200;BME280;73092;49.132;8.920;2023-11-18T04:50:29;100277.69;;;4.86;100.00
83200;BME280;73092;49.132;8.920;2023-11-18T04:52:55;100277.84;;;5.05;100.00
83200;BME280;73092;49.132;8.920;2023-11-18T04:55:21;100274.31;;;5.00;100.00
83200;BME280;73092;49.132;8.920;2023-11-18T04:57:46;100283.03;;;5.02;100.00
83200;BME280;73092;49.132;8.920;2023-11-18T05:00:12;100281.22;;;4.93;100.00
83200;BME280;73092;49.132;8.920;2023-11-18T05:02:41;100284.66;;;4.91;100.00
83200;BME280;73092;49.132;8.920;2023-11-18T05:05:08;100282.94;;;4.90;100.00
83200;BME280;73092;49.132;8.920;2023-11-18T05:07:34;100280.34;;;4.93;100.00
83200;BME280;73092;49.132;8.920;2023-11-18T05:10:00;100279.53;;;5.00;100.00
83200;BME280;73092;49.132;8.920;2023-11-18T05:12:26;100274.34;;;5.06;100.00
83200;BME280;73092;49.132;8.920;2023-11-18T05:14:55;100290.00;;;5.09;100.00
83200;BME280;73092;49.132;8.920;2023-11-18T05:17:21;100288.28;;;5.08;100.00
83200;BME280;73092;49.132;8.920;2023-11-18T05:19:46;100293.47;;;5.05;100.00
83200;BME280;73092;49.132;8.920;2023-11-18T05:22:12;100289.94;;;5.00;100.00
83200;BME280;73092;49.132;8.920;2023-11-18T05:24:37;100287.34;;;5.04;100.00
83200;BME280;73092;49.132;8.920;2023-11-18T05:27:03;100288.22;;;4.99;100.00
83200;BME280;73092;49.132;8.920;2023-11-18T05:29:29;100279.47;;;4.94;100.00
83200;BME280;73092;49.132;8.920;2023-11-18T05:31:54;100274.31;;;5.00;100.00
83200;BME280;73092;49.132;8.920;2023-11-18T05:34:23;100286.44;;;4.98;100.00
83200;BME280;73092;49.132;8.920;2023-11-18T05:36:48;100288.22;;;4.99;100.00
83200;BME280;73092;49.132;8.920;2023-11-18T05:39:19;100287.31;;;4.95;100.00
83200;BME280;73092;49.132;8.920;2023-11-18T05:41:45;100289.03;;;4.95;100.00
83200;BME280;73092;49.132;8.920;2023-11-18T05:44:15;100283.84;;;4.98;100.00
83200;BME280;73092;49.132;8.920;2023-11-18T05:46:45;100288.19;;;4.96;100.00
83200;BME280;73092;49.132;8.920;2023-11-18T05:49:12;100288.22;;;4.99;100.00
83200;BME280;73092;49.132;8.920;2023-11-18T05:51:39;100285.56;;;4.94;100.00
83200;BME280;73092;49.132;8.920;2023-11-18T05:54:06;100286.41;;;4.92;100.00
83200;BME280;73092;49.132;8.920;2023-11-18T05:56:33;100269.91;;;4.91;100.00
83200;BME280;73092;49.132;8.920;2023-11-18T05:58:58;100283.81;;;4.90;100.00
83200;BME280;73092;49.132;8.920;2023-11-18T06:01:27;100265.56;;;4.92;100.00
83200;BME280;73092;49.132;8.920;2023-11-18T06:03:54;100262.09;;;4.90;100.00
83200;BME280;73092;49.132;8.920;2023-11-18T06:06:21;100248.22;;;4.92;100.00
83200;BME280;73092;49.132;8.920;2023-11-18T06:08:46;100250.81;;;4.89;100.00
83200;BME280;73092;49.132;8.920;2023-11-18T06:11:13;100245.59;;;4.94;100.00
83200;BME280;73092;49.132;8.920;2023-11-18T06:13:43;100255.16;;;4.95;100.00
83200;BME280;73092;49.132;8.920;2023-11-18T06:16:14;100259.59;;;5.06;100.00
83200;BME280;73092;49.132;8.920;2023-11-18T06:18:43;100269.09;;;5.00;100.00
83200;BME280;73092;49.132;8.920;2023-11-18T06:21:20;100272.59;;;4.99;100.00
83200;BME280;73092;49.132;8.920;2023-11-18T06:23:47;100272.56;;;4.96;100.00
83200;BME280;73092;49.132;8.920;2023-11-18T06:26:14;100282.97;;;4.96;100.00
83200;BME280;73092;49.132;8.920;2023-11-18T06:28:43;100286.44;;;4.95;100.00
83200;BME280;73092;49.132;8.920;2023-11-18T06:31:09;100291.63;;;4.95;100.00
83200;BME280;73092;49.132;8.920;2023-11-18T06:33:39;100278.63;;;4.93;100.00
83200;BME280;73092;49.132;8.920;2023-11-18T06:36:09;100287.31;;;4.97;100.00
83200;BME280;73092;49.132;8.920;2023-11-18T06:38:36;100297.75;;;5.01;100.00
83200;BME280;73092;49.132;8.920;2023-11-18T06:41:02;100297.75;;;5.00;100.00
83200;BME280;73092;49.132;8.920;2023-11-18T06:43:29;100288.22;;;4.99;100.00
83200;BME280;73092;49.132;8.920;2023-11-18T06:46:07;100289.97;;;5.03;100.00
83200;BME280;73092;49.132;8.920;2023-11-18T06:48:35;100283.00;;;4.99;100.00
83200;BME280;73092;49.132;8.920;2023-11-18T06:51:00;100274.34;;;5.06;100.00
83200;BME280;73092;49.132;8.920;2023-11-18T06:53:27;100280.41;;;5.02;100.00
83200;BME280;73092;49.132;8.920;2023-11-18T06:55:52;100277.78;;;4.99;100.00
83200;BME280;73092;49.132;8.920;2023-11-18T06:58:18;100272.63;;;5.05;100.00
83200;BME280;73092;49.132;8.920;2023-11-18T07:00:43;100279.59;;;5.09;100.00
83200;BME280;73092;49.132;8.920;2023-11-18T07:03:08;100276.09;;;5.07;100.00
83200;BME280;73092;49.132;8.920;2023-11-18T07:05:34;100288.28;;;5.08;100.00
83200;BME280;73092;49.132;8.920;2023-11-18T07:07:59;100288.38;;;5.20;100.00
83200;BME280;73092;49.132;8.920;2023-11-18T07:10:24;100293.59;;;5.20;100.00
83200;BME280;73092;49.132;8.920;2023-11-18T07:12:52;100298.78;;;5.17;100.00
83200;BME280;73092;49.132;8.920;2023-11-18T07:15:18;100290.94;;;5.19;100.00
83200;BME280;73092;49.132;8.920;2023-11-18T07:17:44;100303.94;;;5.13;100.00
83200;BME280;73092;49.132;8.920;2023-11-18T07:20:09;100300.47;;;5.12;100.00
83200;BME280;73092;49.132;8.920;2023-11-18T07:22:38;100303.09;;;5.17;100.00
83200;BME280;73092;49.132;8.920;2023-11-18T07:25:04;100298.78;;;5.20;100.00
83200;BME280;73092;49.132;8.920;2023-11-18T07:27:33;100301.44;;;5.28;100.00
83200;BME280;73092;49.132;8.920;2023-11-18T07:29:58;100311.09;;;5.43;100.00
83200;BME280;73092;49.132;8.920;2023-11-18T07:32:24;100298.94;;;5.51;100.00
83200;BME280;73092;49.132;8.920;2023-11-18T07:34:50;100305.94;;;5.55;100.00
83200;BME280;73092;49.132;8.920;2023-11-18T07:37:15;100282.59;;;5.84;100.00
83200;BME280;73092;49.132;8.920;2023-11-18T07:39:41;100283.44;;;5.82;100.00
83200;BME280;73092;49.132;8.920;2023-11-18T07:42:12;100283.47;;;5.85;100.00
83200;BME280;73092;49.132;8.920;2023-11-18T07:44:38;100285.22;;;5.87;100.00
83200;BME280;73092;49.132;8.920;2023-11-18T07:47:04;100276.50;;;5.84;100.00
83200;BME280;73092;49.132;8.920;2023-11-18T07:49:31;100280.88;;;5.83;100.00
83200;BME280;73092;49.132;8.920;2023-11-18T07:51:57;100281.81;;;5.99;100.00
83200;BME280;73092;49.132;8.920;2023-11-18T07:54:22;100292.19;;;5.90;100.00
83200;BME280;73092;49.132;8.920;2023-11-18T07:56:49;100291.31;;;5.83;100.00
83200;BME280;73092;49.132;8.920;2023-11-18T07:59:14;100293.88;;;5.77;100.00
83200;BME280;73092;49.132;8.920;2023-11-18T08:01:45;100293.88;;;5.78;100.00
83200;BME280;73092;49.132;8.920;2023-11-18T08:04:11;100276.50;;;5.80;100.00
83200;BME280;73092;49.132;8.920;2023-11-18T08:06:42;100279.94;;;5.79;100.00
83200;BME280;73092;49.132;8.920;2023-11-18T08:09:09;100287.06;;;6.05;100.00
83200;BME280;73092;49.132;8.920;2023-11-18T08:11:37;100294.00;;;6.06;100.00
83200;BME280;73092;49.132;8.920;2023-11-18T08:14:04;100296.63;;;6.11;100.00
83200;BME280;73092;49.132;8.920;2023-11-18T08:16:29;100295.78;;;6.16;100.00
83200;BME280;73092;49.132;8.920;2023-11-18T08:18:55;100297.50;;;6.20;100.00
83200;BME280;73092;49.132;8.920;2023-11-18T08:21:21;100291.47;;;6.31;100.00
83200;BME280;73092;49.132;8.920;2023-11-18T08:23:47;100297.56;;;6.39;100.00
83200;BME280;73092;49.132;8.920;2023-11-18T08:26:13;100285.38;;;6.38;99.73
83200;BME280;73092;49.132;8.920;2023-11-18T08:28:39;100292.34;;;6.45;97.84
83200;BME280;73092;49.132;8.920;2023-11-18T08:31:05;100301.06;;;6.38;98.40
83200;BME280;73092;49.132;8.920;2023-11-18T08:33:31;100293.25;;;6.39;99.35
83200;BME280;73092;49.132;8.920;2023-11-18T08:35:57;100283.66;;;6.46;99.25
83200;BME280;73092;49.132;8.920;2023-11-18T08:38:22;100299.31;;;6.41;97.99
83200;BME280;73092;49.132;8.920;2023-11-18T08:40:47;100295.81;;;6.32;97.01
83200;BME280;73092;49.132;8.920;2023-11-18T08:43:13;100292.31;;;6.30;97.38
83200;BME280;73092;49.132;8.920;2023-11-18T08:45:41;100291.50;;;6.43;96.83
83200;BME280;73092;49.132;8.920;2023-11-18T08:48:06;100283.63;;;6.29;96.12
83200;BME280;73092;49.132;8.920;2023-11-18T08:50:34;100285.38;;;6.32;97.25
83200;BME280;73092;49.132;8.920;2023-11-18T08:53:00;100275.81;;;6.54;98.08
83200;BME280;73092;49.132;8.920;2023-11-18T08:55:31;100274.09;;;6.66;97.22
83200;BME280;73092;49.132;8.920;2023-11-18T08:58:16;100271.47;;;6.57;96.15
83200;BME280;73092;49.132;8.920;2023-11-18T09:00:51;100267.13;;;6.64;97.40
83200;BME280;73092;49.132;8.920;2023-11-18T09:03:21;100269.75;;;6.65;95.82
83200;BME280;73092;49.132;8.920;2023-11-18T09:05:55;100273.22;;;6.73;96.69
83200;BME280;73092;49.132;8.920;2023-11-18T09:08:24;100285.44;;;6.93;95.30
83200;BME280;73092;49.132;8.920;2023-11-18T09:10:50;100284.53;;;6.82;93.11
83200;BME280;73092;49.132;8.920;2023-11-18T09:13:20;100267.97;;;6.80;93.58
83200;BME280;73092;49.132;8.920;2023-11-18T09:15:47;100269.75;;;6.90;93.51
83200;BME280;73092;49.132;8.920;2023-11-18T09:18:13;100272.34;;;6.96;91.91
83200;BME280;73092;49.132;8.920;2023-11-18T09:20:38;100267.97;;;6.98;91.46
83200;BME280;73092;49.132;8.920;2023-11-18T09:23:05;100271.47;;;7.06;91.96
83200;BME280;73092;49.132;8.920;2023-11-18T09:25:32;100274.91;;;7.21;90.91
83200;BME280;73092;49.132;8.920;2023-11-18T09:27:58;100275.78;;;7.36;90.08
83200;BME280;73092;49.132;8.920;2023-11-18T09:30:23;100274.84;;;7.53;87.49
83200;BME280;73092;49.132;8.920;2023-11-18T09:32:49;100269.59;;;7.57;89.25
83200;BME280;73092;49.132;8.920;2023-11-18T09:35:16;100268.66;;;7.71;89.96
83200;BME280;73092;49.132;8.920;2023-11-18T09:37:45;100276.53;;;7.61;88.83
83200;BME280;73092;49.132;8.920;2023-11-18T09:40:14;100281.81;;;7.58;88.81
83200;BME280;73092;49.132;8.920;2023-11-18T09:42:40;100281.84;;;7.52;89.16
83200;BME280;73092;49.132;8.920;2023-11-18T09:45:07;100259.13;;;7.51;89.34
83200;BME280;73092;49.132;8.920;2023-11-18T09:47:42;100264.34;;;7.60;89.03
83200;BME280;73092;49.132;8.920;2023-11-18T09:50:10;100267.78;;;7.75;89.81
83200;BME280;73092;49.132;8.920;2023-11-18T09:52:42;100272.97;;;7.90;89.30
83200;BME280;73092;49.132;8.920;2023-11-18T09:55:24;100272.84;;;8.13;88.46
83200;BME280;73092;49.132;8.920;2023-11-18T09:57:55;100269.41;;;8.03;86.95
83200;BME280;73092;49.132;8.920;2023-11-18T10:00:26;100271.16;;;7.95;87.30
83200;BME280;73092;49.132;8.920;2023-11-18T10:02:58;100257.22;;;7.96;86.29
83200;BME280;73092;49.132;8.920;2023-11-18T10:05:26;100262.44;;;7.99;85.94
83200;BME280;73092;49.132;8.920;2023-11-18T10:07:52;100275.53;;;7.99;86.68
83200;BME280;73092;49.132;8.920;2023-11-18T10:10:19;100262.47;;;7.93;85.60
83200;BME280;73092;49.132;8.920;2023-11-18T10:12:47;100264.28;;;7.83;86.26
83200;BME280;73092;49.132;8.920;2023-11-18T10:15:24;100256.34;;;7.89;87.12
83200;BME280;73092;49.132;8.920;2023-11-18T10:17:52;100254.59;;;7.96;87.28
83200;BME280;73092;49.132;8.920;2023-11-18T10:20:50;100256.25;;;8.08;87.07
83200;BME280;73092;49.132;8.920;2023-11-18T10:23:21;100267.63;;;8.08;86.17
83200;BME280;73092;49.132;8.920;2023-11-18T10:25:50;100274.56;;;8.16;86.19
83200;BME280;73092;49.132;8.920;2023-11-18T10:30:57;100256.13;;;8.40;87.22
83200;BME280;73092;49.132;8.920;2023-11-18T10:33:30;100270.94;;;8.35;84.53
83200;BME280;73092;49.132;8.920;2023-11-18T10:35:57;100265.72;;;8.41;86.06
83200;BME280;73092;49.132;8.920;2023-11-18T10:38:23;100255.16;;;8.49;86.84
83200;BME280;73092;49.132;8.920;2023-11-18T10:40:53;100259.66;;;8.25;84.52
83200;BME280;73092;49.132;8.920;2023-11-18T10:43:22;100266.66;;;8.20;86.79
83200;BME280;73092;49.132;8.920;2023-11-18T10:46:10;100261.41;;;8.25;85.99
83200;BME280;73092;49.132;8.920;2023-11-18T10:48:50;100257.09;;;8.15;85.35
83200;BME280;73092;49.132;8.920;2023-11-18T10:51:17;100265.88;;;8.09;84.75
83200;BME280;73092;49.132;8.920;2023-11-18T10:53:47;100253.69;;;8.00;85.30
83200;BME280;73092;49.132;8.920;2023-11-18T10:56:24;100252.88;;;7.94;86.13
83200;BME280;73092;49.132;8.920;2023-11-18T10:58:55;100248.56;;;7.82;85.82
83200;BME280;73092;49.132;8.920;2023-11-18T11:03:55;100251.03;;;8.08;85.08
83200;BME280;73092;49.132;8.920;2023-11-18T11:06:24;100249.38;;;7.96;83.99
83200;BME280;73092;49.132;8.920;2023-11-18T11:08:53;100246.69;;;8.08;85.41
83200;BME280;73092;49.132;8.920;2023-11-18T11:11:22;100246.66;;;8.10;83.02
83200;BME280;73092;49.132;8.920;2023-11-18T11:13:58;100241.47;;;8.02;83.83
83200;BME280;73092;49.132;8.920;2023-11-18T11:16:42;100249.28;;;8.10;85.64
83200;BME280;73092;49.132;8.920;2023-11-18T11:19:32;100251.78;;;8.31;84.79
83200;BME280;73092;49.132;8.920;2023-11-18T11:22:05;100237.78;;;8.40;85.29
83200;BME280;73092;49.132;8.920;2023-11-18T11:24:45;100230.78;;;8.39;83.24
83200;BME280;73092;49.132;8.920;2023-11-18T11:27:22;100227.31;;;8.34;84.75
83200;BME280;73092;49.132;8.920;2023-11-18T11:30:02;100229.03;;;8.38;84.04
83200;BME280;73092;49.132;8.920;2023-11-18T11:32:39;100219.41;;;8.42;85.70
83200;BME280;73092;49.132;8.920;2023-11-18T11:35:16;100217.63;;;8.45;84.68
83200;BME280;73092;49.132;8.920;2023-11-18T11:37:46;100206.38;;;8.31;82.26
83200;BME280;73092;49.132;8.920;2023-11-18T11:40:14;100200.25;;;8.30;83.05
83200;BME280;73092;49.132;8.920;2023-11-18T11:42:48;100202.88;;;8.29;83.64
83200;BME280;73092;49.132;8.920;2023-11-18T11:45:21;100194.22;;;8.18;81.53
83200;BME280;73092;49.132;8.920;2023-11-18T11:47:50;100188.13;;;8.16;82.98
83200;BME280;73092;49.132;8.920;2023-11-18T11:50:22;100175.81;;;8.28;83.23
83200;BME280;73092;49.132;8.920;2023-11-18T11:53:05;100174.16;;;8.18;83.16
83200;BME280;73092;49.132;8.920;2023-11-18T11:55:38;100169.78;;;8.19;83.63
83200;BME280;73092;49.132;8.920;2023-11-18T11:58:29;100168.88;;;8.23;84.24
83200;BME280;73092;49.132;8.920;2023-11-18T12:00:59;100164.44;;;8.31;84.36
83200;BME280;73092;49.132;8.920;2023-11-18T12:03:24;100162.97;;;7.96;82.73
83200;BME280;73092;49.132;8.920;2023-11-18T12:05:54;100155.97;;;7.92;84.92
83200;BME280;73092;49.132;8.920;2023-11-18T12:08:22;100141.25;;;7.80;83.96
83200;BME280;73092;49.132;8.920;2023-11-18T12:10:51;100136.91;;;7.78;84.07
83200;BME280;73092;49.132;8.920;2023-11-18T12:13:19;100135.03;;;7.92;86.65
83200;BME280;73092;49.132;8.920;2023-11-18T12:15:51;100141.09;;;8.00;84.31
83200;BME280;73092;49.132;8.920;2023-11-18T12:18:22;100131.53;;;7.96;84.01
83200;BME280;73092;49.132;8.920;2023-11-18T12:20:49;100120.06;;;8.11;85.26
83200;BME280;73092;49.132;8.920;2023-11-18T12:23:19;100112.16;;;8.19;85.24
83200;BME280;73092;49.132;8.920;2023-11-18T12:25:48;100113.13;;;8.08;82.96
83200;BME280;73092;49.132;8.920;2023-11-18T12:28:20;100122.78;;;8.00;83.06
83200;BME280;73092;49.132;8.920;2023-11-18T12:30:47;100121.94;;;7.97;84.79
83200;BME280;73092;49.132;8.920;2023-11-18T12:33:25;100110.66;;;7.87;85.07
83200;BME280;73092;49.132;8.920;2023-11-18T12:41:36;100108.94;;;7.83;85.54
83200;BME280;73092;49.132;8.920;2023-11-18T12:46:47;100094.16;;;7.77;87.27
83200;BME280;73092;49.132;8.920;2023-11-18T12:49:18;100109.03;;;7.68;86.69
83200;BME280;73092;49.132;8.920;2023-11-18T12:51:49;100093.31;;;7.71;88.43
83200;BME280;73092;49.132;8.920;2023-11-18T12:54:15;100086.38;;;7.68;87.75
83200;BME280;73092;49.132;8.920;2023-11-18T12:56:41;100084.66;;;7.61;87.36
83200;BME280;73092;49.132;8.920;2023-11-18T12:59:12;100089.03;;;7.62;87.84
83200;BME280;73092;49.132;8.920;2023-11-18T13:01:38;100081.16;;;7.63;88.47
83200;BME280;73092;49.132;8.920;2023-11-18T13:04:07;100081.16;;;7.60;87.91
83200;BME280;73092;49.132;8.920;2023-11-18T13:06:34;100076.78;;;7.61;88.20
83200;BME280;73092;49.132;8.920;2023-11-18T13:09:00;100082.09;;;7.52;88.75
83200;BME280;73092;49.132;8.920;2023-11-18T13:11:31;100069.03;;;7.47;88.36